sensor_id;sensor_type;location;lat;lon;timestamp;P1;durP1;ratioP1;P2;durP2;ratioP2
6791;SDS011;3433;48.730;9.108;2023-02-28T00:01:33;3.77;;;2.67;;
6791;SDS011;3433;48.730;9.108;2023-02-28T00:04:20;4.33;;;3.77;;
6791;SDS011;3433;48.730;9.108;2023-02-28T00:07:08;3.40;;;3.10;;
6791;SDS011;3433;48.730;9.108;2023-02-28T00:09:57;4.23;;;2.73;;
6791;SDS011;3433;48.730;9.108;2023-02-28T00:12:44;3.80;;;2.57;;
6791;SDS011;3433;48.730;9.108;2023-02-28T00:15:31;5.23;;;2.80;;
6791;SDS011;3433;48.730;9.108;2023-02-28T00:18:19;4.50;;;3.17;;
6791;SDS011;3433;48.730;9.108;2023-02-28T00:21:07;3.33;;;3.03;;
6791;SDS011;3433;48.730;9.108;2023-02-28T00:23:54;3.20;;;2.63;;
6791;SDS011;3433;48.730;9.108;2023-02-28T00:26:43;3.57;;;3.00;;
6791;SDS011;3433;48.730;9.108;2023-02-28T00:29:30;3.07;;;2.77;;
6791;SDS011;3433;48.730;9.108;2023-02-28T00:32:17;3.63;;;2.53;;
6791;SDS011;3433;48.730;9.108;2023-02-28T00:35:05;4.20;;;3.00;;
6791;SDS011;3433;48.730;9.108;2023-02-28T00:37:53;3.53;;;2.10;;
6791;SDS011;3433;48.730;9.108;2023-02-28T00:40:41;3.00;;;2.17;;
6791;SDS011;3433;48.730;9.108;2023-02-28T00:43:29;2.60;;;2.40;;
6791;SDS011;3433;48.730;9.108;2023-02-28T00:46:17;3.00;;;2.70;;
6791;SDS011;3433;48.730;9.108;2023-02-28T00:49:04;2.90;;;2.60;;
6791;SDS011;3433;48.730;9.108;2023-02-28T00:51:52;4.00;;;2.47;;
6791;SDS011;3433;48.730;9.108;2023-02-28T00:54:40;3.20;;;2.90;;
6791;SDS011;3433;48.730;9.108;2023-02-28T00:57:27;4.80;;;2.93;;
6791;SDS011;3433;48.730;9.108;2023-02-28T01:00:16;2.83;;;2.60;;
6791;SDS011;3433;48.730;9.108;2023-02-28T01:03:04;3.13;;;2.83;;
6791;SDS011;3433;48.730;9.108;2023-02-28T01:05:51;2.70;;;2.40;;
6791;SDS011;3433;48.730;9.108;2023-02-28T01:08:39;11.07;;;3.20;;
6791;SDS011;3433;48.730;9.108;2023-02-28T01:11:26;3.53;;;2.57;;
6791;SDS011;3433;48.730;9.108;2023-02-28T01:14:14;3.53;;;2.70;;
6791;SDS011;3433;48.730;9.108;2023-02-28T01:17:04;7.63;;;3.20;;
6791;SDS011;3433;48.730;9.108;2023-02-28T01:19:52;5.73;;;3.33;;
6791;SDS011;3433;48.730;9.108;2023-02-28T01:22:40;4.33;;;3.23;;
6791;SDS011;3433;48.730;9.108;2023-02-28T01:25:27;3.07;;;2.50;;
6791;SDS011;3433;48.730;9.108;2023-02-28T01:28:15;7.23;;;2.80;;
6791;SDS011;3433;48.730;9.108;2023-02-28T01:31:02;4.30;;;2.73;;
6791;SDS011;3433;48.730;9.108;2023-02-28T01:33:52;3.20;;;2.70;;
6791;SDS011;3433;48.730;9.108;2023-02-28T01:36:39;5.83;;;2.77;;
6791;SDS011;3433;48.730;9.108;2023-02-28T01:39:26;4.77;;;2.87;;
6791;SDS011;3433;48.730;9.108;2023-02-28T01:42:13;4.10;;;2.60;;
6791;SDS011;3433;48.730;9.108;2023-02-28T01:45:03;3.90;;;2.70;;
6791;SDS011;3433;48.730;9.108;2023-02-28T01:47:54;4.33;;;2.83;;
6791;SDS011;3433;48.730;9.108;2023-02-28T01:50:46;4.50;;;3.20;;
6791;SDS011;3433;48.730;9.108;2023-02-28T01:53:36;4.87;;;3.20;;
6791;SDS011;3433;48.730;9.108;2023-02-28T01:56:27;5.57;;;3.17;;
6791;SDS011;3433;48.730;9.108;2023-02-28T01:59:20;4.10;;;3.20;;
6791;SDS011;3433;48.730;9.108;2023-02-28T02:02:11;4.17;;;3.10;;
6791;SDS011;3433;48.730;9.108;2023-02-28T02:05:02;4.70;;;3.03;;
6791;SDS011;3433;48.730;9.108;2023-02-28T02:07:54;3.77;;;3.37;;
6791;SDS011;3433;48.730;9.108;2023-02-28T02:10:43;4.03;;;3.23;;
6791;SDS011;3433;48.730;9.108;2023-02-28T02:13:41;4.73;;;3.10;;
6791;SDS011;3433;48.730;9.108;2023-02-28T02:16:44;3.90;;;3.13;;
6791;SDS011;3433;48.730;9.108;2023-02-28T02:23:09;4.43;;;2.90;;
6791;SDS011;3433;48.730;9.108;2023-02-28T02:26:27;3.57;;;3.27;;
6791;SDS011;3433;48.730;9.108;2023-02-28T02:29:40;3.70;;;3.23;;
6791;SDS011;3433;48.730;9.108;2023-02-28T02:32:55;6.50;;;3.63;;
6791;SDS011;3433;48.730;9.108;2023-02-28T02:35:54;6.70;;;3.60;;
6791;SDS011;3433;48.730;9.108;2023-02-28T02:38:44;11.20;;;3.37;;
6791;SDS011;3433;48.730;9.108;2023-02-28T02:41:38;4.20;;;3.13;;
6791;SDS011;3433;48.730;9.108;2023-02-28T02:44:32;5.80;;;4.03;;
6791;SDS011;3433;48.730;9.108;2023-02-28T02:47:27;7.03;;;3.63;;
6791;SDS011;3433;48.730;9.108;2023-02-28T02:50:17;6.43;;;3.60;;
6791;SDS011;3433;48.730;9.108;2023-02-28T02:53:10;5.87;;;3.63;;
6791;SDS011;3433;48.730;9.108;2023-02-28T02:55:59;4.90;;;3.57;;
6791;SDS011;3433;48.730;9.108;2023-02-28T02:58:49;5.63;;;4.03;;
6791;SDS011;3433;48.730;9.108;2023-02-28T03:01:40;4.60;;;3.40;;
6791;SDS011;3433;48.730;9.108;2023-02-28T03:04:30;5.77;;;4.00;;
6791;SDS011;3433;48.730;9.108;2023-02-28T03:07:21;4.77;;;3.87;;
6791;SDS011;3433;48.730;9.108;2023-02-28T03:13:22;5.13;;;4.03;;
6791;SDS011;3433;48.730;9.108;2023-02-28T03:16:36;5.00;;;4.20;;
6791;SDS011;3433;48.730;9.108;2023-02-28T03:19:34;4.60;;;3.67;;
6791;SDS011;3433;48.730;9.108;2023-02-28T03:22:38;8.40;;;4.87;;
6791;SDS011;3433;48.730;9.108;2023-02-28T03:25:42;6.23;;;4.37;;
6791;SDS011;3433;48.730;9.108;2023-02-28T03:28:37;6.10;;;4.47;;
6791;SDS011;3433;48.730;9.108;2023-02-28T03:31:31;5.00;;;4.10;;
6791;SDS011;3433;48.730;9.108;2023-02-28T03:36:55;5.63;;;4.90;;
6791;SDS011;3433;48.730;9.108;2023-02-28T03:39:46;7.63;;;5.03;;
6791;SDS011;3433;48.730;9.108;2023-02-28T03:42:41;6.97;;;4.10;;
6791;SDS011;3433;48.730;9.108;2023-02-28T03:45:32;5.73;;;3.60;;
6791;SDS011;3433;48.730;9.108;2023-02-28T03:48:24;4.80;;;3.80;;
6791;SDS011;3433;48.730;9.108;2023-02-28T03:51:18;5.30;;;4.20;;
6791;SDS011;3433;48.730;9.108;2023-02-28T03:54:09;8.47;;;4.70;;
6791;SDS011;3433;48.730;9.108;2023-02-28T03:57:02;6.70;;;4.00;;
6791;SDS011;3433;48.730;9.108;2023-02-28T03:59:54;7.60;;;4.70;;
6791;SDS011;3433;48.730;9.108;2023-02-28T04:02:45;7.10;;;4.40;;
6791;SDS011;3433;48.730;9.108;2023-02-28T04:05:45;6.17;;;4.60;;
6791;SDS011;3433;48.730;9.108;2023-02-28T04:08:36;5.80;;;5.27;;
6791;SDS011;3433;48.730;9.108;2023-02-28T04:11:25;5.23;;;4.20;;
6791;SDS011;3433;48.730;9.108;2023-02-28T04:14:18;6.37;;;4.57;;
6791;SDS011;3433;48.730;9.108;2023-02-28T04:17:07;7.33;;;4.10;;
6791;SDS011;3433;48.730;9.108;2023-02-28T04:19:54;6.30;;;4.07;;
6791;SDS011;3433;48.730;9.108;2023-02-28T04:22:42;7.13;;;5.00;;
6791;SDS011;3433;48.730;9.108;2023-02-28T04:25:30;6.07;;;4.00;;
6791;SDS011;3433;48.730;9.108;2023-02-28T04:28:17;5.00;;;4.10;;
6791;SDS011;3433;48.730;9.108;2023-02-28T04:31:04;5.40;;;4.27;;
6791;SDS011;3433;48.730;9.108;2023-02-28T04:33:53;6.40;;;4.87;;
6791;SDS011;3433;48.730;9.108;2023-02-28T04:36:41;5.63;;;4.60;;
6791;SDS011;3433;48.730;9.108;2023-02-28T04:39:29;7.37;;;5.43;;
6791;SDS011;3433;48.730;9.108;2023-02-28T04:42:16;6.70;;;5.17;;
6791;SDS011;3433;48.730;9.108;2023-02-28T04:45:03;8.20;;;5.33;;
6791;SDS011;3433;48.730;9.108;2023-02-28T04:47:51;6.80;;;4.70;;
6791;SDS011;3433;48.730;9.108;2023-02-28T04:50:40;6.37;;;4.00;;
6791;SDS011;3433;48.730;9.108;2023-02-28T04:53:27;6.63;;;5.17;;
6791;SDS011;3433;48.730;9.108;2023-02-28T04:56:16;8.63;;;5.30;;
6791;SDS011;3433;48.730;9.108;2023-02-28T04:59:04;11.20;;;4.67;;
6791;SDS011;3433;48.730;9.108;2023-02-28T05:01:51;5.10;;;4.60;;
6791;SDS011;3433;48.730;9.108;2023-02-28T05:04:38;6.90;;;4.50;;
6791;SDS011;3433;48.730;9.108;2023-02-28T05:07:27;8.73;;;4.70;;
6791;SDS011;3433;48.730;9.108;2023-02-28T05:10:14;8.57;;;5.43;;
6791;SDS011;3433;48.730;9.108;2023-02-28T05:13:02;8.23;;;5.07;;
6791;SDS011;3433;48.730;9.108;2023-02-28T05:15:49;6.93;;;4.70;;
6791;SDS011;3433;48.730;9.108;2023-02-28T05:18:36;6.20;;;5.20;;
6791;SDS011;3433;48.730;9.108;2023-02-28T05:21:25;7.83;;;5.57;;
6791;SDS011;3433;48.730;9.108;2023-02-28T05:24:17;8.37;;;4.47;;
6791;SDS011;3433;48.730;9.108;2023-02-28T05:27:07;9.33;;;5.43;;
6791;SDS011;3433;48.730;9.108;2023-02-28T05:29:55;5.20;;;4.30;;
6791;SDS011;3433;48.730;9.108;2023-02-28T05:32:42;7.70;;;5.10;;
6791;SDS011;3433;48.730;9.108;2023-02-28T05:35:30;7.10;;;4.77;;
6791;SDS011;3433;48.730;9.108;2023-02-28T05:38:17;7.20;;;4.50;;
6791;SDS011;3433;48.730;9.108;2023-02-28T05:41:07;8.83;;;5.13;;
6791;SDS011;3433;48.730;9.108;2023-02-28T05:43:54;8.20;;;5.50;;
6791;SDS011;3433;48.730;9.108;2023-02-28T05:46:41;6.70;;;4.80;;
6791;SDS011;3433;48.730;9.108;2023-02-28T05:49:28;5.97;;;5.27;;
6791;SDS011;3433;48.730;9.108;2023-02-28T05:52:16;8.10;;;5.47;;
6791;SDS011;3433;48.730;9.108;2023-02-28T05:55:04;5.90;;;5.17;;
6791;SDS011;3433;48.730;9.108;2023-02-28T05:57:53;11.70;;;6.00;;
6791;SDS011;3433;48.730;9.108;2023-02-28T06:00:41;16.73;;;9.40;;
6791;SDS011;3433;48.730;9.108;2023-02-28T06:03:28;15.97;;;9.40;;
6791;SDS011;3433;48.730;9.108;2023-02-28T06:06:15;10.33;;;5.77;;
6791;SDS011;3433;48.730;9.108;2023-02-28T06:09:03;9.63;;;5.80;;
6791;SDS011;3433;48.730;9.108;2023-02-28T06:11:50;8.63;;;5.97;;
6791;SDS011;3433;48.730;9.108;2023-02-28T06:14:39;12.20;;;6.43;;
6791;SDS011;3433;48.730;9.108;2023-02-28T06:17:26;12.53;;;6.60;;
6791;SDS011;3433;48.730;9.108;2023-02-28T06:20:13;9.53;;;5.63;;
6791;SDS011;3433;48.730;9.108;2023-02-28T06:23:01;9.77;;;6.23;;
6791;SDS011;3433;48.730;9.108;2023-02-28T06:25:48;11.63;;;6.30;;
6791;SDS011;3433;48.730;9.108;2023-02-28T06:28:35;8.27;;;5.40;;
6791;SDS011;3433;48.730;9.108;2023-02-28T06:31:24;9.83;;;5.80;;
6791;SDS011;3433;48.730;9.108;2023-02-28T06:34:12;11.87;;;6.57;;
6791;SDS011;3433;48.730;9.108;2023-02-28T06:37:00;8.10;;;6.00;;
6791;SDS011;3433;48.730;9.108;2023-02-28T06:39:47;10.73;;;6.53;;
6791;SDS011;3433;48.730;9.108;2023-02-28T06:42:34;10.93;;;5.83;;
6791;SDS011;3433;48.730;9.108;2023-02-28T06:45:22;13.33;;;6.80;;
6791;SDS011;3433;48.730;9.108;2023-02-28T06:48:12;8.60;;;5.67;;
6791;SDS011;3433;48.730;9.108;2023-02-28T06:51:03;12.00;;;7.37;;
6791;SDS011;3433;48.730;9.108;2023-02-28T06:53:51;8.97;;;6.10;;
6791;SDS011;3433;48.730;9.108;2023-02-28T06:56:39;11.67;;;6.70;;
6791;SDS011;3433;48.730;9.108;2023-02-28T06:59:26;14.87;;;7.20;;
6791;SDS011;3433;48.730;9.108;2023-02-28T07:02:13;9.83;;;6.40;;
6791;SDS011;3433;48.730;9.108;2023-02-28T07:05:02;13.87;;;6.40;;
6791;SDS011;3433;48.730;9.108;2023-02-28T07:07:50;11.90;;;7.30;;
6791;SDS011;3433;48.730;9.108;2023-02-28T07:10:38;12.60;;;6.90;;
6791;SDS011;3433;48.730;9.108;2023-02-28T07:13:25;11.27;;;6.43;;
6791;SDS011;3433;48.730;9.108;2023-02-28T07:16:12;13.43;;;6.30;;
6791;SDS011;3433;48.730;9.108;2023-02-28T07:18:59;15.10;;;7.23;;
6791;SDS011;3433;48.730;9.108;2023-02-28T07:21:48;12.03;;;6.57;;
6791;SDS011;3433;48.730;9.108;2023-02-28T07:24:35;12.23;;;7.43;;
6791;SDS011;3433;48.730;9.108;2023-02-28T07:27:23;9.80;;;7.27;;
6791;SDS011;3433;48.730;9.108;2023-02-28T07:30:11;10.00;;;6.90;;
6791;SDS011;3433;48.730;9.108;2023-02-28T07:32:58;10.30;;;6.97;;
6791;SDS011;3433;48.730;9.108;2023-02-28T07:35:46;11.17;;;7.03;;
6791;SDS011;3433;48.730;9.108;2023-02-28T07:38:35;11.83;;;7.10;;
6791;SDS011;3433;48.730;9.108;2023-02-28T07:41:22;10.17;;;7.00;;
6791;SDS011;3433;48.730;9.108;2023-02-28T07:44:12;14.67;;;8.30;;
6791;SDS011;3433;48.730;9.108;2023-02-28T07:47:00;12.60;;;7.90;;
6791;SDS011;3433;48.730;9.108;2023-02-28T07:49:47;10.90;;;7.43;;
6791;SDS011;3433;48.730;9.108;2023-02-28T07:52:34;13.50;;;6.77;;
6791;SDS011;3433;48.730;9.108;2023-02-28T07:55:24;11.37;;;8.13;;
6791;SDS011;3433;48.730;9.108;2023-02-28T07:58:11;13.73;;;8.33;;
6791;SDS011;3433;48.730;9.108;2023-02-28T08:01:04;14.77;;;7.93;;
6791;SDS011;3433;48.730;9.108;2023-02-28T08:03:52;12.80;;;8.23;;
6791;SDS011;3433;48.730;9.108;2023-02-28T08:06:40;13.27;;;8.50;;
6791;SDS011;3433;48.730;9.108;2023-02-28T08:09:27;11.00;;;7.60;;
6791;SDS011;3433;48.730;9.108;2023-02-28T08:12:16;10.53;;;7.33;;
6791;SDS011;3433;48.730;9.108;2023-02-28T08:15:04;15.30;;;8.00;;
6791;SDS011;3433;48.730;9.108;2023-02-28T08:17:52;11.57;;;8.07;;
6791;SDS011;3433;48.730;9.108;2023-02-28T08:20:41;12.83;;;8.90;;
6791;SDS011;3433;48.730;9.108;2023-02-28T08:23:28;12.53;;;7.30;;
6791;SDS011;3433;48.730;9.108;2023-02-28T08:26:16;10.87;;;8.00;;
6791;SDS011;3433;48.730;9.108;2023-02-28T08:29:05;13.10;;;8.10;;
6791;SDS011;3433;48.730;9.108;2023-02-28T08:31:52;12.40;;;7.87;;
6791;SDS011;3433;48.730;9.108;2023-02-28T08:34:39;20.73;;;8.10;;
6791;SDS011;3433;48.730;9.108;2023-02-28T08:37:26;15.50;;;8.40;;
6791;SDS011;3433;48.730;9.108;2023-02-28T08:40:14;14.97;;;8.07;;
6791;SDS011;3433;48.730;9.108;2023-02-28T08:43:03;14.70;;;7.87;;
6791;SDS011;3433;48.730;9.108;2023-02-28T08:45:52;14.67;;;7.37;;
6791;SDS011;3433;48.730;9.108;2023-02-28T08:48:39;15.67;;;8.20;;
6791;SDS011;3433;48.730;9.108;2023-02-28T08:51:27;15.17;;;7.63;;
6791;SDS011;3433;48.730;9.108;2023-02-28T08:54:15;13.00;;;7.63;;
6791;SDS011;3433;48.730;9.108;2023-02-28T08:57:04;18.53;;;7.77;;
6791;SDS011;3433;48.730;9.108;2023-02-28T08:59:51;15.50;;;8.37;;
6791;SDS011;3433;48.730;9.108;2023-02-28T09:02:40;16.30;;;9.03;;
6791;SDS011;3433;48.730;9.108;2023-02-28T09:05:29;14.70;;;8.43;;
6791;SDS011;3433;48.730;9.108;2023-02-28T09:08:16;17.13;;;8.13;;
6791;SDS011;3433;48.730;9.108;2023-02-28T09:11:03;13.00;;;9.00;;
6791;SDS011;3433;48.730;9.108;2023-02-28T09:13:51;14.83;;;9.00;;
6791;SDS011;3433;48.730;9.108;2023-02-28T09:16:38;14.47;;;8.50;;
6791;SDS011;3433;48.730;9.108;2023-02-28T09:19:27;14.27;;;8.90;;
6791;SDS011;3433;48.730;9.108;2023-02-28T09:22:14;14.93;;;9.30;;
6791;SDS011;3433;48.730;9.108;2023-02-28T09:25:02;12.13;;;7.73;;
6791;SDS011;3433;48.730;9.108;2023-02-28T09:27:49;12.60;;;8.37;;
6791;SDS011;3433;48.730;9.108;2023-02-28T09:30:37;12.53;;;8.20;;
6791;SDS011;3433;48.730;9.108;2023-02-28T09:33:24;15.00;;;8.67;;
6791;SDS011;3433;48.730;9.108;2023-02-28T09:36:13;15.20;;;9.17;;
6791;SDS011;3433;48.730;9.108;2023-02-28T09:39:00;11.70;;;8.83;;
6791;SDS011;3433;48.730;9.108;2023-02-28T09:41:49;13.00;;;8.40;;
6791;SDS011;3433;48.730;9.108;2023-02-28T09:44:38;14.23;;;8.80;;
6791;SDS011;3433;48.730;9.108;2023-02-28T09:47:29;14.77;;;9.67;;
6791;SDS011;3433;48.730;9.108;2023-02-28T09:50:22;16.60;;;9.30;;
6791;SDS011;3433;48.730;9.108;2023-02-28T09:53:21;12.63;;;8.67;;
6791;SDS011;3433;48.730;9.108;2023-02-28T09:56:14;13.90;;;8.57;;
6791;SDS011;3433;48.730;9.108;2023-02-28T09:59:13;18.03;;;10.90;;
6791;SDS011;3433;48.730;9.108;2023-02-28T10:02:10;18.67;;;8.63;;
6791;SDS011;3433;48.730;9.108;2023-02-28T10:05:07;14.90;;;8.93;;
6791;SDS011;3433;48.730;9.108;2023-02-28T10:08:02;13.40;;;9.03;;
6791;SDS011;3433;48.730;9.108;2023-02-28T10:10:55;15.30;;;9.23;;
6791;SDS011;3433;48.730;9.108;2023-02-28T10:13:53;19.40;;;9.33;;
6791;SDS011;3433;48.730;9.108;2023-02-28T10:16:48;14.93;;;9.57;;
6791;SDS011;3433;48.730;9.108;2023-02-28T10:19:40;11.10;;;7.80;;
6791;SDS011;3433;48.730;9.108;2023-02-28T10:22:34;16.40;;;10.00;;
6791;SDS011;3433;48.730;9.108;2023-02-28T10:25:27;15.87;;;8.67;;
6791;SDS011;3433;48.730;9.108;2023-02-28T10:28:16;13.03;;;8.77;;
6791;SDS011;3433;48.730;9.108;2023-02-28T10:31:04;15.37;;;9.40;;
6791;SDS011;3433;48.730;9.108;2023-02-28T10:33:51;16.30;;;10.00;;
6791;SDS011;3433;48.730;9.108;2023-02-28T10:36:38;13.77;;;8.33;;
6791;SDS011;3433;48.730;9.108;2023-02-28T10:39:37;16.93;;;9.87;;
6791;SDS011;3433;48.730;9.108;2023-02-28T10:42:27;17.87;;;9.90;;
6791;SDS011;3433;48.730;9.108;2023-02-28T10:45:17;13.97;;;9.90;;
6791;SDS011;3433;48.730;9.108;2023-02-28T10:48:05;15.63;;;9.60;;
6791;SDS011;3433;48.730;9.108;2023-02-28T10:51:12;16.50;;;9.37;;
6791;SDS011;3433;48.730;9.108;2023-02-28T10:54:02;16.60;;;10.20;;
6791;SDS011;3433;48.730;9.108;2023-02-28T10:57:06;18.50;;;9.37;;
6791;SDS011;3433;48.730;9.108;2023-02-28T11:00:06;18.70;;;9.73;;
6791;SDS011;3433;48.730;9.108;2023-02-28T11:03:03;18.13;;;10.20;;
6791;SDS011;3433;48.730;9.108;2023-02-28T11:06:13;17.23;;;8.93;;
6791;SDS011;3433;48.730;9.108;2023-02-28T11:09:03;15.37;;;9.27;;
6791;SDS011;3433;48.730;9.108;2023-02-28T11:11:59;18.13;;;10.77;;
6791;SDS011;3433;48.730;9.108;2023-02-28T11:14:48;19.60;;;10.70;;
6791;SDS011;3433;48.730;9.108;2023-02-28T11:17:37;13.73;;;9.70;;
6791;SDS011;3433;48.730;9.108;2023-02-28T11:20:26;17.77;;;10.80;;
6791;SDS011;3433;48.730;9.108;2023-02-28T11:23:15;14.63;;;9.87;;
6791;SDS011;3433;48.730;9.108;2023-02-28T11:26:04;15.97;;;10.50;;
6791;SDS011;3433;48.730;9.108;2023-02-28T11:29:02;17.83;;;10.13;;
6791;SDS011;3433;48.730;9.108;2023-02-28T11:32:04;17.33;;;10.60;;
6791;SDS011;3433;48.730;9.108;2023-02-28T11:35:00;20.10;;;10.80;;
6791;SDS011;3433;48.730;9.108;2023-02-28T11:37:50;14.63;;;10.33;;
6791;SDS011;3433;48.730;9.108;2023-02-28T11:40:39;15.00;;;10.30;;
6791;SDS011;3433;48.730;9.108;2023-02-28T11:43:37;35.10;;;10.40;;
6791;SDS011;3433;48.730;9.108;2023-02-28T11:46:40;15.27;;;10.00;;
6791;SDS011;3433;48.730;9.108;2023-02-28T11:49:34;17.40;;;10.50;;
6791;SDS011;3433;48.730;9.108;2023-02-28T11:52:30;17.87;;;10.93;;
6791;SDS011;3433;48.730;9.108;2023-02-28T11:55:29;17.87;;;10.33;;
6791;SDS011;3433;48.730;9.108;2023-02-28T11:58:27;15.80;;;10.23;;
6791;SDS011;3433;48.730;9.108;2023-02-28T12:01:25;17.97;;;10.43;;
6791;SDS011;3433;48.730;9.108;2023-02-28T12:04:29;18.10;;;11.03;;
6791;SDS011;3433;48.730;9.108;2023-02-28T12:07:30;23.03;;;11.70;;
6791;SDS011;3433;48.730;9.108;2023-02-28T12:10:23;14.27;;;10.40;;
6791;SDS011;3433;48.730;9.108;2023-02-28T12:13:18;15.73;;;9.67;;
6791;SDS011;3433;48.730;9.108;2023-02-28T12:16:16;18.10;;;12.30;;
6791;SDS011;3433;48.730;9.108;2023-02-28T12:19:19;15.33;;;10.60;;
6791;SDS011;3433;48.730;9.108;2023-02-28T12:22:15;16.67;;;10.40;;
6791;SDS011;3433;48.730;9.108;2023-02-28T12:25:25;15.10;;;10.40;;
6791;SDS011;3433;48.730;9.108;2023-02-28T12:28:37;15.20;;;10.17;;
6791;SDS011;3433;48.730;9.108;2023-02-28T12:31:29;15.40;;;10.63;;
6791;SDS011;3433;48.730;9.108;2023-02-28T12:34:22;18.03;;;11.07;;
6791;SDS011;3433;48.730;9.108;2023-02-28T12:37:14;16.23;;;10.07;;
6791;SDS011;3433;48.730;9.108;2023-02-28T12:40:08;16.27;;;10.77;;
6791;SDS011;3433;48.730;9.108;2023-02-28T12:42:59;15.67;;;10.87;;
6791;SDS011;3433;48.730;9.108;2023-02-28T12:45:52;16.33;;;10.60;;
6791;SDS011;3433;48.730;9.108;2023-02-28T12:48:43;20.13;;;11.80;;
6791;SDS011;3433;48.730;9.108;2023-02-28T12:51:33;17.23;;;11.00;;
6791;SDS011;3433;48.730;9.108;2023-02-28T12:54:23;15.70;;;11.13;;
6791;SDS011;3433;48.730;9.108;2023-02-28T12:57:17;18.97;;;11.27;;
6791;SDS011;3433;48.730;9.108;2023-02-28T13:00:12;16.00;;;11.67;;
6791;SDS011;3433;48.730;9.108;2023-02-28T13:03:14;15.90;;;11.00;;
6791;SDS011;3433;48.730;9.108;2023-02-28T13:06:28;13.30;;;10.03;;
6791;SDS011;3433;48.730;9.108;2023-02-28T13:09:29;16.63;;;10.13;;
6791;SDS011;3433;48.730;9.108;2023-02-28T13:12:16;14.37;;;11.20;;
6791;SDS011;3433;48.730;9.108;2023-02-28T13:15:05;15.37;;;11.37;;
6791;SDS011;3433;48.730;9.108;2023-02-28T13:17:58;13.87;;;10.30;;
6791;SDS011;3433;48.730;9.108;2023-02-28T13:20:48;12.87;;;9.63;;
6791;SDS011;3433;48.730;9.108;2023-02-28T13:23:38;14.00;;;11.13;;
6791;SDS011;3433;48.730;9.108;2023-02-28T13:29:57;13.17;;;10.27;;
6791;SDS011;3433;48.730;9.108;2023-02-28T13:32:45;16.30;;;10.60;;
6791;SDS011;3433;48.730;9.108;2023-02-28T13:35:36;16.87;;;10.63;;
6791;SDS011;3433;48.730;9.108;2023-02-28T13:38:40;20.53;;;10.93;;
6791;SDS011;3433;48.730;9.108;2023-02-28T13:41:44;15.03;;;11.20;;
6791;SDS011;3433;48.730;9.108;2023-02-28T13:44:36;14.10;;;10.50;;
6791;SDS011;3433;48.730;9.108;2023-02-28T13:48:15;18.10;;;10.70;;
6791;SDS011;3433;48.730;9.108;2023-02-28T13:54:30;17.87;;;10.50;;
6791;SDS011;3433;48.730;9.108;2023-02-28T13:57:26;18.10;;;11.30;;
6791;SDS011;3433;48.730;9.108;2023-02-28T14:00:28;13.70;;;10.27;;
6791;SDS011;3433;48.730;9.108;2023-02-28T14:03:26;15.73;;;11.07;;
6791;SDS011;3433;48.730;9.108;2023-02-28T14:06:33;13.33;;;10.80;;
6791;SDS011;3433;48.730;9.108;2023-02-28T14:09:23;14.40;;;9.90;;
6791;SDS011;3433;48.730;9.108;2023-02-28T14:15:45;15.30;;;10.80;;
6791;SDS011;3433;48.730;9.108;2023-02-28T14:18:36;16.30;;;10.70;;
6791;SDS011;3433;48.730;9.108;2023-02-28T14:21:27;16.30;;;11.30;;
6791;SDS011;3433;48.730;9.108;2023-02-28T14:24:25;16.17;;;10.50;;
6791;SDS011;3433;48.730;9.108;2023-02-28T14:27:34;14.57;;;9.33;;
6791;SDS011;3433;48.730;9.108;2023-02-28T14:30:48;14.70;;;9.60;;
6791;SDS011;3433;48.730;9.108;2023-02-28T14:33:57;15.63;;;10.97;;
6791;SDS011;3433;48.730;9.108;2023-02-28T14:37:00;17.47;;;10.87;;
6791;SDS011;3433;48.730;9.108;2023-02-28T14:39:49;12.27;;;9.17;;
6791;SDS011;3433;48.730;9.108;2023-02-28T14:42:37;14.13;;;9.87;;
6791;SDS011;3433;48.730;9.108;2023-02-28T14:45:27;13.53;;;10.07;;
6791;SDS011;3433;48.730;9.108;2023-02-28T14:48:18;14.97;;;10.63;;
6791;SDS011;3433;48.730;9.108;2023-02-28T14:51:06;12.13;;;8.83;;
6791;SDS011;3433;48.730;9.108;2023-02-28T14:53:57;13.50;;;9.37;;
6791;SDS011;3433;48.730;9.108;2023-02-28T14:56:48;17.53;;;10.30;;
6791;SDS011;3433;48.730;9.108;2023-02-28T14:59:36;14.37;;;9.57;;
6791;SDS011;3433;48.730;9.108;2023-02-28T15:02:25;12.37;;;8.83;;
6791;SDS011;3433;48.730;9.108;2023-02-28T15:05:21;14.40;;;9.60;;
6791;SDS011;3433;48.730;9.108;2023-02-28T15:08:12;16.17;;;10.43;;
6791;SDS011;3433;48.730;9.108;2023-02-28T15:11:01;15.83;;;9.93;;
6791;SDS011;3433;48.730;9.108;2023-02-28T15:13:51;13.77;;;9.77;;
6791;SDS011;3433;48.730;9.108;2023-02-28T15:16:41;14.47;;;9.40;;
6791;SDS011;3433;48.730;9.108;2023-02-28T15:19:30;15.07;;;9.10;;
6791;SDS011;3433;48.730;9.108;2023-02-28T15:22:22;12.70;;;9.23;;
6791;SDS011;3433;48.730;9.108;2023-02-28T15:25:19;16.70;;;9.90;;
6791;SDS011;3433;48.730;9.108;2023-02-28T15:28:09;15.43;;;10.23;;
6791;SDS011;3433;48.730;9.108;2023-02-28T15:31:01;12.00;;;8.60;;
6791;SDS011;3433;48.730;9.108;2023-02-28T15:34:04;14.00;;;9.50;;
6791;SDS011;3433;48.730;9.108;2023-02-28T15:36:53;10.40;;;8.97;;
6791;SDS011;3433;48.730;9.108;2023-02-28T15:39:42;14.57;;;9.43;;
6791;SDS011;3433;48.730;9.108;2023-02-28T15:42:31;17.63;;;10.00;;
6791;SDS011;3433;48.730;9.108;2023-02-28T15:45:28;15.63;;;10.30;;
6791;SDS011;3433;48.730;9.108;2023-02-28T15:48:20;15.40;;;9.53;;
6791;SDS011;3433;48.730;9.108;2023-02-28T15:51:14;14.90;;;9.27;;
6791;SDS011;3433;48.730;9.108;2023-02-28T15:54:05;14.23;;;10.13;;
6791;SDS011;3433;48.730;9.108;2023-02-28T15:56:56;14.07;;;9.90;;
6791;SDS011;3433;48.730;9.108;2023-02-28T15:59:49;16.53;;;10.87;;
6791;SDS011;3433;48.730;9.108;2023-02-28T16:02:39;16.70;;;10.90;;
6791;SDS011;3433;48.730;9.108;2023-02-28T16:05:27;17.40;;;9.30;;
6791;SDS011;3433;48.730;9.108;2023-02-28T16:08:17;14.97;;;9.20;;
6791;SDS011;3433;48.730;9.108;2023-02-28T16:11:05;24.00;;;10.10;;
6791;SDS011;3433;48.730;9.108;2023-02-28T16:13:56;15.90;;;10.67;;
6791;SDS011;3433;48.730;9.108;2023-02-28T16:16:44;13.30;;;9.80;;
6791;SDS011;3433;48.730;9.108;2023-02-28T16:19:34;14.63;;;9.50;;
6791;SDS011;3433;48.730;9.108;2023-02-28T16:22:22;19.70;;;10.23;;
6791;SDS011;3433;48.730;9.108;2023-02-28T16:25:11;16.40;;;9.53;;
6791;SDS011;3433;48.730;9.108;2023-02-28T16:27:59;17.50;;;10.60;;
6791;SDS011;3433;48.730;9.108;2023-02-28T16:30:48;16.23;;;10.03;;
6791;SDS011;3433;48.730;9.108;2023-02-28T16:33:38;15.70;;;9.90;;
6791;SDS011;3433;48.730;9.108;2023-02-28T16:36:25;15.40;;;11.03;;
6791;SDS011;3433;48.730;9.108;2023-02-28T16:39:13;18.43;;;11.23;;
6791;SDS011;3433;48.730;9.108;2023-02-28T16:42:00;18.80;;;10.67;;
6791;SDS011;3433;48.730;9.108;2023-02-28T16:44:47;13.20;;;9.13;;
6791;SDS011;3433;48.730;9.108;2023-02-28T16:47:36;14.10;;;8.70;;
6791;SDS011;3433;48.730;9.108;2023-02-28T16:50:24;22.63;;;12.23;;
6791;SDS011;3433;48.730;9.108;2023-02-28T16:53:13;19.13;;;10.60;;
6791;SDS011;3433;48.730;9.108;2023-02-28T16:56:00;17.30;;;10.53;;
6791;SDS011;3433;48.730;9.108;2023-02-28T16:58:48;14.93;;;11.07;;
6791;SDS011;3433;48.730;9.108;2023-02-28T17:01:37;17.03;;;10.33;;
6791;SDS011;3433;48.730;9.108;2023-02-28T17:04:26;15.67;;;10.27;;
6791;SDS011;3433;48.730;9.108;2023-02-28T17:07:14;17.67;;;11.10;;
6791;SDS011;3433;48.730;9.108;2023-02-28T17:10:02;15.03;;;10.07;;
6791;SDS011;3433;48.730;9.108;2023-02-28T17:12:58;17.93;;;10.37;;
6791;SDS011;3433;48.730;9.108;2023-02-28T17:15:46;15.13;;;10.77;;
6791;SDS011;3433;48.730;9.108;2023-02-28T17:18:34;15.73;;;9.70;;
6791;SDS011;3433;48.730;9.108;2023-02-28T17:21:23;15.97;;;10.60;;
6791;SDS011;3433;48.730;9.108;2023-02-28T17:24:10;18.70;;;11.17;;
6791;SDS011;3433;48.730;9.108;2023-02-28T17:26:58;16.67;;;11.00;;
6791;SDS011;3433;48.730;9.108;2023-02-28T17:29:46;16.00;;;11.50;;
6791;SDS011;3433;48.730;9.108;2023-02-28T17:32:33;17.30;;;10.60;;
6791;SDS011;3433;48.730;9.108;2023-02-28T17:35:21;18.73;;;11.23;;
6791;SDS011;3433;48.730;9.108;2023-02-28T17:38:13;16.73;;;11.70;;
6791;SDS011;3433;48.730;9.108;2023-02-28T17:41:03;15.30;;;9.93;;
6791;SDS011;3433;48.730;9.108;2023-02-28T17:43:50;19.13;;;10.90;;
6791;SDS011;3433;48.730;9.108;2023-02-28T17:46:44;16.90;;;10.73;;
6791;SDS011;3433;48.730;9.108;2023-02-28T17:49:32;16.13;;;10.50;;